Main page
METAR-TAF:

METAR-TAF

Airports :

Flora Municipal Airport

Flora, Illinois, United States

latitude: 38-39-54N, longitude: 088-27-11W, elevation: 472 ft

Current weather observation

The report was made 13 minutes ago, at 07:15 UTC
Calm wind
Temperature 37°F
Humidity 87%
Pressure 30.20 in. Hg
Visibility: 10 miles
Clear sky

METAR: KFOA 220715Z AUTO 00000KT 10SM CLR 03/01 A3020 RMK AO2

Time: 02:28 (07:28 UTC)


TAF: missing

Weather observations and forecasts of more than 4000 airports (METAR and TAF reports).

The available stations are represented by yellow and red dots on the map.

Hover mouse over dot to see the name of the station.

Then click to see weather observations and forecasts.

To change the map : click on the green buttons with a black cross to zoom in, on the green button with a dash to zoom out, or on the green arrows for adjacent maps.


METAR-TAF: